createdAt,value
2023-03-29T00:00:35.956Z,-0.50
2023-03-29T00:03:16.649Z,-0.50
2023-03-29T00:05:45.028Z,-0.60
2023-03-29T00:08:14.594Z,-0.60
2023-03-29T00:10:43.021Z,-0.52
2023-03-29T00:13:11.249Z,-0.60
2023-03-29T00:15:39.293Z,-0.60
2023-03-29T00:18:07.394Z,-0.60
2023-03-29T00:20:38.087Z,-0.60
2023-03-29T00:23:06.771Z,-0.70
2023-03-29T00:25:34.744Z,-0.62
2023-03-29T00:28:02.787Z,-0.70
2023-03-29T00:30:30.824Z,-0.60
2023-03-29T00:32:58.871Z,-0.60
2023-03-29T00:35:27.242Z,-0.58
2023-03-29T00:37:55.255Z,-0.56
2023-03-29T00:40:23.715Z,-0.60
2023-03-29T00:42:51.783Z,-0.60
2023-03-29T00:45:21.938Z,-0.68
2023-03-29T00:47:51.911Z,-0.62
2023-03-29T00:50:38.039Z,-0.66
2023-03-29T00:53:27.341Z,-0.50
2023-03-29T00:56:14.159Z,-0.50
2023-03-29T00:59:04.947Z,-0.50
2023-03-29T01:01:36.227Z,-0.50
2023-03-29T01:04:08.622Z,-0.56
2023-03-29T01:06:36.852Z,-0.60
2023-03-29T01:09:08.095Z,-0.50
2023-03-29T01:11:36.406Z,-0.60
2023-03-29T01:14:06.734Z,-0.60
2023-03-29T01:16:38.311Z,-0.60
2023-03-29T01:19:08.420Z,-0.66
2023-03-29T01:22:26.122Z,-0.74
2023-03-29T01:25:22.471Z,-0.70
2023-03-29T01:27:55.776Z,-0.70
2023-03-29T01:30:32.989Z,-0.70
2023-03-29T01:33:03.110Z,-0.68
2023-03-29T01:35:44.760Z,-0.80
2023-03-29T01:38:13.486Z,-0.74
2023-03-29T01:40:41.808Z,-0.80
2023-03-29T01:43:22.573Z,-0.80
2023-03-29T01:46:10.389Z,-0.80
2023-03-29T01:48:55.441Z,-0.80
2023-03-29T01:51:32.218Z,-0.70
2023-03-29T01:54:07.686Z,-0.70
2023-03-29T01:56:38.017Z,-0.70
2023-03-29T01:59:12.479Z,-0.66
2023-03-29T02:01:42.613Z,-0.58
2023-03-29T02:04:13.244Z,-0.64
2023-03-29T02:06:41.522Z,-0.58
2023-03-29T02:09:09.553Z,-0.50
2023-03-29T02:11:39.303Z,-0.60
2023-03-29T02:14:07.563Z,-0.60
2023-03-29T02:16:37.605Z,-0.60
2023-03-29T02:19:05.834Z,-0.60
2023-03-29T02:21:44.854Z,-0.62
2023-03-29T02:24:13.385Z,-0.64
2023-03-29T02:26:41.799Z,-0.70
2023-03-29T02:29:09.963Z,-0.72
2023-03-29T02:32:04.729Z,-0.80
2023-03-29T02:34:39.023Z,-0.70
2023-03-29T02:37:10.397Z,-0.74
2023-03-29T02:39:38.494Z,-0.80
2023-03-29T02:42:06.576Z,-0.80
2023-03-29T02:44:36.691Z,-0.88
2023-03-29T02:47:16.789Z,-0.86
2023-03-29T02:49:44.967Z,-0.90
2023-03-29T02:52:16.126Z,-0.82
2023-03-29T02:54:45.978Z,-0.82
2023-03-29T02:57:14.208Z,-0.80
2023-03-29T02:59:44.255Z,-1.00
2023-03-29T03:02:13.780Z,-1.00
2023-03-29T03:04:43.353Z,-0.92
2023-03-29T03:07:11.982Z,-0.94
2023-03-29T03:09:40.408Z,-0.90
2023-03-29T03:12:10.180Z,-0.90
2023-03-29T03:14:38.199Z,-0.90
2023-03-29T03:17:06.244Z,-0.86
2023-03-29T03:19:34.392Z,-0.80
2023-03-29T03:22:03.291Z,-0.84
2023-03-29T03:24:32.667Z,-1.00
2023-03-29T03:27:01.022Z,-1.00
2023-03-29T03:29:29.912Z,-1.00
2023-03-29T03:32:37.601Z,-0.96
2023-03-29T03:35:25.558Z,-1.00
2023-03-29T03:37:53.735Z,-0.92
2023-03-29T03:40:22.179Z,-0.94
2023-03-29T03:42:50.172Z,-1.00
2023-03-29T03:45:18.819Z,-0.90
2023-03-29T03:47:52.772Z,-1.00
2023-03-29T03:50:59.411Z,-0.94
2023-03-29T03:53:32.344Z,-1.00
2023-03-29T03:56:13.530Z,-1.00
2023-03-29T03:59:01.554Z,-1.00
2023-03-29T04:01:31.900Z,-1.00
2023-03-29T04:04:04.742Z,-1.10
2023-03-29T04:06:33.295Z,-1.10
2023-03-29T04:09:20.268Z,-1.10
2023-03-29T04:11:56.027Z,-1.10
2023-03-29T04:14:24.871Z,-1.04
2023-03-29T04:17:06.580Z,-1.20
2023-03-29T04:19:58.256Z,-1.14
2023-03-29T04:22:27.965Z,-1.30
2023-03-29T04:24:56.293Z,-1.30
2023-03-29T04:27:53.634Z,-1.32
2023-03-29T04:30:34.629Z,-1.32
2023-03-29T04:33:22.628Z,-1.40
2023-03-29T04:35:55.588Z,-1.50
2023-03-29T04:38:23.914Z,-1.50
2023-03-29T04:40:55.079Z,-1.60
2023-03-29T04:43:49.366Z,-1.60
2023-03-29T04:46:26.867Z,-1.70
2023-03-29T04:49:13.543Z,-1.56
2023-03-29T04:51:44.039Z,-1.62
2023-03-29T04:54:11.997Z,-1.68
2023-03-29T04:57:09.358Z,-1.70
2023-03-29T04:59:55.236Z,-1.74
2023-03-29T05:02:43.266Z,-1.70
2023-03-29T05:05:16.118Z,-1.70
2023-03-29T05:07:45.295Z,-1.70
2023-03-29T05:10:15.023Z,-1.70
2023-03-29T05:12:43.367Z,-1.66
2023-03-29T05:15:12.170Z,-1.60
2023-03-29T05:17:40.847Z,-1.50
2023-03-29T05:20:12.893Z,-1.58
2023-03-29T05:22:41.742Z,-1.50
2023-03-29T05:25:11.911Z,-1.60
2023-03-29T05:27:42.668Z,-1.50
2023-03-29T05:30:12.756Z,-1.50
2023-03-29T05:32:48.484Z,-1.46
2023-03-29T05:35:18.649Z,-1.50
2023-03-29T05:37:47.403Z,-1.46
2023-03-29T05:40:15.522Z,-1.48
2023-03-29T05:43:04.037Z,-1.34
2023-03-29T05:45:33.939Z,-1.50
2023-03-29T05:48:05.955Z,-1.40
2023-03-29T05:50:35.242Z,-1.28
2023-03-29T05:53:03.858Z,-1.20
2023-03-29T05:55:32.025Z,-1.20
2023-03-29T05:58:02.313Z,-1.12
2023-03-29T06:00:34.377Z,-0.96
2023-03-29T06:03:21.283Z,-0.92
2023-03-29T06:06:02.503Z,-0.90
2023-03-29T06:08:31.962Z,-0.76
2023-03-29T06:11:11.058Z,-0.80
2023-03-29T06:13:57.907Z,-0.80
2023-03-29T06:16:26.311Z,-0.80
2023-03-29T06:18:57.933Z,-0.70
2023-03-29T06:21:28.232Z,-0.70
2023-03-29T06:23:56.933Z,-0.70
2023-03-29T06:26:27.889Z,-0.70
2023-03-29T06:28:56.382Z,-0.60
2023-03-29T06:31:24.807Z,-0.66
2023-03-29T06:33:53.366Z,-0.58
2023-03-29T06:36:36.189Z,-0.46
2023-03-29T06:39:05.463Z,-0.42
2023-03-29T06:41:54.581Z,-0.42
2023-03-29T06:44:45.375Z,-0.34
2023-03-29T06:47:19.907Z,-0.40
2023-03-29T06:49:48.294Z,-0.40
2023-03-29T06:52:32.489Z,-0.30
2023-03-29T06:55:07.455Z,-0.40
2023-03-29T06:57:58.257Z,-0.30
2023-03-29T07:00:30.844Z,-0.12
2023-03-29T07:03:21.657Z,-0.12
2023-03-29T07:05:53.108Z,-0.02
2023-03-29T07:08:22.627Z,-0.06
2023-03-29T07:10:58.658Z,0.00
2023-03-29T07:13:32.093Z,0.00
2023-03-29T07:16:04.164Z,0.08
2023-03-29T07:18:45.762Z,0.00
2023-03-29T07:21:21.202Z,0.00
2023-03-29T07:23:52.289Z,0.04
2023-03-29T07:26:28.969Z,0.10
2023-03-29T07:29:00.292Z,0.10
2023-03-29T07:31:35.130Z,0.10
2023-03-29T07:34:30.093Z,0.08
2023-03-29T07:37:00.776Z,0.06
2023-03-29T07:39:28.911Z,0.24
2023-03-29T07:42:17.970Z,0.30
2023-03-29T07:44:45.993Z,0.40
2023-03-29T07:47:23.681Z,0.50
2023-03-29T07:49:59.323Z,0.50
2023-03-29T07:52:30.426Z,0.50
2023-03-29T07:54:59.550Z,0.60
2023-03-29T07:57:36.421Z,0.70
2023-03-29T08:00:20.210Z,0.70
2023-03-29T08:02:56.160Z,0.68
2023-03-29T08:05:39.926Z,0.70
2023-03-29T08:08:12.460Z,0.86
2023-03-29T08:10:53.759Z,0.80
2023-03-29T08:13:54.450Z,0.88
2023-03-29T08:16:42.533Z,0.70
2023-03-29T08:19:14.249Z,0.90
2023-03-29T08:21:52.077Z,0.96
2023-03-29T08:24:21.149Z,1.02
2023-03-29T08:26:53.426Z,1.20
2023-03-29T08:29:22.456Z,1.08
2023-03-29T08:31:50.526Z,1.04
2023-03-29T08:34:18.883Z,1.02
2023-03-29T08:36:55.833Z,1.20
2023-03-29T08:39:38.078Z,1.20
2023-03-29T08:42:54.022Z,1.40
2023-03-29T08:45:48.994Z,1.50
2023-03-29T08:48:22.240Z,1.50
2023-03-29T08:50:52.896Z,1.50
2023-03-29T08:53:38.297Z,1.58
2023-03-29T08:56:17.120Z,1.60
2023-03-29T08:58:45.156Z,1.70
2023-03-29T09:01:13.580Z,1.70
2023-03-29T09:04:09.186Z,1.68
2023-03-29T09:06:58.294Z,1.50
2023-03-29T09:09:34.211Z,1.50
2023-03-29T09:12:17.394Z,1.42
2023-03-29T09:15:16.668Z,1.44
2023-03-29T09:18:14.185Z,1.58
2023-03-29T09:21:06.108Z,1.60
2023-03-29T09:24:00.117Z,1.70
2023-03-29T09:27:31.018Z,1.70
2023-03-29T09:30:10.156Z,1.78
2023-03-29T09:32:52.703Z,2.02
2023-03-29T09:35:31.150Z,2.06
2023-03-29T09:37:59.490Z,2.10
2023-03-29T09:40:39.489Z,2.30
2023-03-29T09:43:17.991Z,2.28
2023-03-29T09:45:50.167Z,2.20
2023-03-29T09:48:19.433Z,2.40
2023-03-29T09:50:51.927Z,2.46
2023-03-29T09:53:20.962Z,2.40
2023-03-29T09:55:59.792Z,2.56
2023-03-29T09:58:44.581Z,2.52
2023-03-29T10:03:49.048Z,2.90
2023-03-29T10:06:18.854Z,2.90
2023-03-29T10:08:51.494Z,2.88
2023-03-29T10:11:29.017Z,2.84
2023-03-29T10:14:00.355Z,2.74
2023-03-29T10:16:38.114Z,2.90
2023-03-29T10:19:22.914Z,2.92
2023-03-29T10:21:52.899Z,3.10
2023-03-29T10:24:22.195Z,3.10
2023-03-29T10:27:04.373Z,3.10
2023-03-29T10:29:40.206Z,3.08
2023-03-29T10:32:23.177Z,3.00
2023-03-29T10:34:51.448Z,2.90
2023-03-29T10:37:19.988Z,3.00
2023-03-29T10:39:48.522Z,3.02
2023-03-29T10:42:18.307Z,3.42
2023-03-29T10:45:02.186Z,3.90
2023-03-29T10:47:34.546Z,3.84
2023-03-29T10:50:12.464Z,3.68
2023-03-29T10:52:40.613Z,3.64
2023-03-29T10:55:12.243Z,3.92
2023-03-29T10:57:58.684Z,4.58
2023-03-29T11:00:34.781Z,4.50
2023-03-29T11:03:47.469Z,4.40
2023-03-29T11:06:27.824Z,4.70
2023-03-29T11:08:59.786Z,4.48
2023-03-29T11:11:41.190Z,4.72
2023-03-29T11:14:17.513Z,4.90
2023-03-29T11:16:55.085Z,4.68
2023-03-29T11:19:55.502Z,4.42
2023-03-29T11:22:40.587Z,4.90
2023-03-29T11:25:29.128Z,5.20
2023-03-29T11:27:59.889Z,5.14
2023-03-29T11:30:34.049Z,4.70
2023-03-29T11:33:08.749Z,4.90
2023-03-29T11:35:39.457Z,4.84
2023-03-29T11:38:22.125Z,4.90
2023-03-29T11:40:54.708Z,4.78
2023-03-29T11:43:39.880Z,4.80
2023-03-29T11:46:26.359Z,4.22
2023-03-29T11:48:56.841Z,4.10
2023-03-29T11:51:30.946Z,4.12
2023-03-29T11:54:13.958Z,4.00
2023-03-29T11:56:47.665Z,3.90
2023-03-29T12:00:00.390Z,4.28
2023-03-29T12:02:31.828Z,4.50
2023-03-29T12:05:01.382Z,4.50
2023-03-29T12:07:36.088Z,4.16
2023-03-29T12:10:19.879Z,4.44
2023-03-29T12:12:53.288Z,4.48
2023-03-29T12:15:25.178Z,4.86
2023-03-29T12:18:11.653Z,5.18
2023-03-29T12:20:40.435Z,5.30
2023-03-29T12:23:13.460Z,5.10
2023-03-29T12:26:20.510Z,5.10
2023-03-29T12:28:57.658Z,5.10
2023-03-29T12:31:31.733Z,5.42
2023-03-29T12:34:51.688Z,5.72
2023-03-29T12:37:54.560Z,5.78
2023-03-29T12:40:48.445Z,5.78
2023-03-29T12:43:39.302Z,5.68
2023-03-29T12:46:37.302Z,5.78
2023-03-29T12:49:29.837Z,6.00
2023-03-29T12:52:12.676Z,6.10
2023-03-29T12:54:40.746Z,6.00
2023-03-29T12:57:26.522Z,6.20
2023-03-29T12:59:55.063Z,6.40
2023-03-29T13:02:23.154Z,6.60
2023-03-29T13:04:54.414Z,6.40
2023-03-29T13:07:22.767Z,6.60
2023-03-29T13:09:55.035Z,6.50
2023-03-29T13:12:32.117Z,6.52
2023-03-29T13:15:21.026Z,6.70
2023-03-29T13:18:40.240Z,6.70
2023-03-29T13:21:17.284Z,6.70
2023-03-29T13:24:23.449Z,6.80
2023-03-29T13:27:06.325Z,6.88
2023-03-29T13:29:47.907Z,6.98
2023-03-29T13:32:52.694Z,7.00
2023-03-29T13:35:42.542Z,6.80
2023-03-29T13:38:16.579Z,6.84
2023-03-29T13:40:47.704Z,6.70
2023-03-29T13:43:19.304Z,6.80
2023-03-29T13:45:59.416Z,7.00
2023-03-29T13:48:36.823Z,7.00
2023-03-29T13:51:18.540Z,7.06
2023-03-29T13:54:13.181Z,7.00
2023-03-29T13:56:57.180Z,7.20
2023-03-29T13:59:45.421Z,7.20
2023-03-29T14:02:20.360Z,7.24
2023-03-29T14:04:49.435Z,7.30
2023-03-29T14:07:17.631Z,7.02
2023-03-29T14:09:46.029Z,6.96
2023-03-29T14:12:14.511Z,7.00
2023-03-29T14:14:57.703Z,6.80
2023-03-29T14:17:27.116Z,6.50
2023-03-29T14:19:57.935Z,6.40
2023-03-29T14:22:30.731Z,6.10
2023-03-29T14:25:02.045Z,6.20
2023-03-29T14:27:31.148Z,6.20
2023-03-29T14:29:59.876Z,6.10
2023-03-29T14:32:29.595Z,6.20
2023-03-29T14:34:58.163Z,6.38
2023-03-29T14:37:28.650Z,6.40
2023-03-29T14:39:57.033Z,6.50
2023-03-29T14:42:26.765Z,6.80
2023-03-29T14:45:04.955Z,7.06
2023-03-29T14:47:33.256Z,7.14
2023-03-29T14:50:01.767Z,7.40
2023-03-29T14:52:30.597Z,7.46
2023-03-29T14:54:59.836Z,7.06
2023-03-29T14:57:32.284Z,7.00
2023-03-29T15:00:02.227Z,6.80
2023-03-29T15:02:33.730Z,6.88
2023-03-29T15:05:04.741Z,6.62
2023-03-29T15:07:33.886Z,6.48
2023-03-29T15:10:03.173Z,6.40
2023-03-29T15:12:31.777Z,6.30
2023-03-29T15:15:00.150Z,6.20
2023-03-29T15:17:49.553Z,6.04
2023-03-29T15:20:28.278Z,5.80
2023-03-29T15:23:15.553Z,5.80
2023-03-29T15:25:51.460Z,5.82
2023-03-29T15:28:46.857Z,5.76
2023-03-29T15:31:18.330Z,5.56
2023-03-29T15:33:46.814Z,5.52
2023-03-29T15:36:14.927Z,5.40
2023-03-29T15:38:46.058Z,5.30
2023-03-29T15:41:14.749Z,5.30
2023-03-29T15:43:43.213Z,5.40
2023-03-29T15:46:12.319Z,5.40
2023-03-29T15:48:40.877Z,5.30
2023-03-29T15:51:15.029Z,5.20
2023-03-29T15:53:43.319Z,4.90
2023-03-29T15:56:15.881Z,5.10
2023-03-29T15:58:44.015Z,4.90
2023-03-29T16:01:34.824Z,5.00
2023-03-29T16:04:16.100Z,4.96
2023-03-29T16:06:45.000Z,4.76
2023-03-29T16:09:13.028Z,4.72
2023-03-29T16:11:41.796Z,4.60
2023-03-29T16:14:24.326Z,4.70
2023-03-29T16:16:53.231Z,4.60
2023-03-29T16:19:22.054Z,4.40
2023-03-29T16:21:50.345Z,4.48
2023-03-29T16:24:29.019Z,4.50
2023-03-29T16:26:57.114Z,4.32
2023-03-29T16:29:25.655Z,4.40
2023-03-29T16:31:53.792Z,4.40
2023-03-29T16:34:22.850Z,4.40
2023-03-29T16:36:51.074Z,4.30
2023-03-29T16:39:19.277Z,4.36
2023-03-29T16:41:49.048Z,4.30
2023-03-29T16:44:23.806Z,4.20
2023-03-29T16:46:57.525Z,4.30
2023-03-29T16:49:25.578Z,4.20
2023-03-29T16:51:53.672Z,4.22
2023-03-29T16:54:21.675Z,4.06
2023-03-29T16:56:49.814Z,4.00
2023-03-29T16:59:17.909Z,4.00
2023-03-29T17:01:46.453Z,4.00
2023-03-29T17:04:14.637Z,4.00
2023-03-29T17:06:42.765Z,4.00
2023-03-29T17:09:11.171Z,4.00
2023-03-29T17:11:39.592Z,3.90
2023-03-29T17:14:07.818Z,3.90
2023-03-29T17:16:36.086Z,3.90
2023-03-29T17:19:04.312Z,3.90
2023-03-29T17:21:38.139Z,3.80
2023-03-29T17:24:06.409Z,3.80
2023-03-29T17:26:34.476Z,3.80
2023-03-29T17:29:02.479Z,3.70
2023-03-29T17:31:38.354Z,3.60
2023-03-29T17:34:09.309Z,3.58
2023-03-29T17:36:37.497Z,3.60
2023-03-29T17:39:15.390Z,3.54
2023-03-29T17:41:43.371Z,3.50
2023-03-29T17:44:12.243Z,3.50
2023-03-29T17:46:40.447Z,3.58
2023-03-29T17:49:08.580Z,3.50
2023-03-29T17:51:36.668Z,3.50
2023-03-29T17:54:04.895Z,3.42
2023-03-29T17:56:33.876Z,3.40
2023-03-29T17:59:01.975Z,3.30
2023-03-29T18:01:29.980Z,3.30
2023-03-29T18:03:58.296Z,3.30
2023-03-29T18:06:26.293Z,3.30
2023-03-29T18:08:56.788Z,3.20
2023-03-29T18:11:25.705Z,3.20
2023-03-29T18:13:54.047Z,3.12
2023-03-29T18:16:22.191Z,3.10
2023-03-29T18:18:50.833Z,3.10
2023-03-29T18:21:22.157Z,2.90
2023-03-29T18:23:52.937Z,2.90
2023-03-29T18:26:24.979Z,2.80
2023-03-29T18:28:53.417Z,2.60
2023-03-29T18:31:21.929Z,2.50
2023-03-29T18:33:55.824Z,2.32
2023-03-29T18:36:25.880Z,2.30
2023-03-29T18:38:55.881Z,2.30
2023-03-29T18:41:27.501Z,2.30
2023-03-29T18:44:00.309Z,2.30
2023-03-29T18:46:31.309Z,2.40
2023-03-29T18:49:02.320Z,2.30
2023-03-29T18:51:31.142Z,2.40
2023-03-29T18:53:59.462Z,2.38
2023-03-29T18:56:28.818Z,2.38
2023-03-29T18:58:57.240Z,2.30
2023-03-29T19:01:25.720Z,2.40
2023-03-29T19:04:07.529Z,2.40
2023-03-29T19:06:35.949Z,2.50
2023-03-29T19:09:05.309Z,2.60
2023-03-29T19:11:36.240Z,2.50
2023-03-29T19:14:09.300Z,2.40
2023-03-29T19:16:43.131Z,2.30
2023-03-29T19:19:12.870Z,2.20
2023-03-29T19:21:47.193Z,2.14
2023-03-29T19:24:18.169Z,2.10
2023-03-29T19:26:47.972Z,2.00
2023-03-29T19:29:18.442Z,1.80
2023-03-29T19:31:48.943Z,1.70
2023-03-29T19:34:19.773Z,1.50
2023-03-29T19:36:47.796Z,1.32
2023-03-29T19:39:18.955Z,1.20
2023-03-29T19:41:47.144Z,1.20
2023-03-29T19:44:15.337Z,1.10
2023-03-29T19:46:43.461Z,1.10
2023-03-29T19:49:13.707Z,1.10
2023-03-29T19:51:43.123Z,1.10
2023-03-29T19:54:13.423Z,1.20
2023-03-29T19:56:43.003Z,1.20
2023-03-29T19:59:20.291Z,1.30
2023-03-29T20:01:50.996Z,1.38
2023-03-29T20:04:20.042Z,1.40
2023-03-29T20:06:48.662Z,1.40
2023-03-29T20:09:16.988Z,1.50
2023-03-29T20:11:46.979Z,1.50
2023-03-29T20:14:15.193Z,1.50
2023-03-29T20:16:45.833Z,1.48
2023-03-29T20:19:14.283Z,1.50
2023-03-29T20:21:45.005Z,1.40
2023-03-29T20:24:13.232Z,1.40
2023-03-29T20:26:44.246Z,1.30
2023-03-29T20:29:15.009Z,1.30
2023-03-29T20:31:46.139Z,1.20
2023-03-29T20:34:14.160Z,1.20
2023-03-29T20:36:47.062Z,1.20
2023-03-29T20:39:18.828Z,1.10
2023-03-29T20:41:47.768Z,1.10
2023-03-29T20:44:19.314Z,1.00
2023-03-29T20:47:02.188Z,1.00
2023-03-29T20:49:42.223Z,0.98
2023-03-29T20:52:23.346Z,0.90
2023-03-29T20:54:54.603Z,0.88
2023-03-29T20:57:28.069Z,0.80
2023-03-29T20:59:59.293Z,0.80
2023-03-29T21:02:31.393Z,0.80
2023-03-29T21:05:02.462Z,0.80
2023-03-29T21:07:35.710Z,0.80
2023-03-29T21:10:11.454Z,0.80
2023-03-29T21:12:41.171Z,0.80
2023-03-29T21:15:10.633Z,0.76
2023-03-29T21:17:38.917Z,0.70
2023-03-29T21:20:11.070Z,0.70
2023-03-29T21:22:50.380Z,0.70
2023-03-29T21:25:27.494Z,0.80
2023-03-29T21:27:58.441Z,0.88
2023-03-29T21:30:32.015Z,0.90
2023-03-29T21:33:03.936Z,0.80
2023-03-29T21:35:38.051Z,0.70
2023-03-29T21:38:27.251Z,0.60
2023-03-29T21:40:58.295Z,0.60
2023-03-29T21:43:29.208Z,0.60
2023-03-29T21:46:05.723Z,0.60
2023-03-29T21:48:40.146Z,0.58
2023-03-29T21:51:16.841Z,0.50
2023-03-29T21:53:47.961Z,0.50
2023-03-29T21:56:22.539Z,0.60
2023-03-29T21:58:56.160Z,0.50
2023-03-29T22:01:35.578Z,0.60
2023-03-29T22:04:14.278Z,0.60
2023-03-29T22:06:56.536Z,0.60
2023-03-29T22:09:31.256Z,0.60
2023-03-29T22:11:59.964Z,0.48
2023-03-29T22:14:34.746Z,0.46
2023-03-29T22:17:05.899Z,0.10
2023-03-29T22:19:41.928Z,-0.08
2023-03-29T22:22:14.298Z,-0.20
2023-03-29T22:25:01.650Z,-0.20
2023-03-29T22:27:36.107Z,-0.20
2023-03-29T22:30:05.125Z,-0.10
2023-03-29T22:32:41.935Z,-0.08
2023-03-29T22:35:12.636Z,0.00
2023-03-29T22:37:44.355Z,0.04
2023-03-29T22:40:19.466Z,0.06
2023-03-29T22:42:52.808Z,0.00
2023-03-29T22:45:26.776Z,-0.06
2023-03-29T22:48:01.040Z,-0.20
2023-03-29T22:50:29.628Z,-0.20
2023-03-29T22:53:03.041Z,-0.20
2023-03-29T22:55:34.405Z,-0.30
2023-03-29T22:58:02.731Z,-0.30
2023-03-29T23:00:39.343Z,-0.30
2023-03-29T23:03:12.894Z,-0.30
2023-03-29T23:05:41.610Z,-0.38
2023-03-29T23:08:12.769Z,-0.32
2023-03-29T23:10:46.248Z,-0.40
2023-03-29T23:13:23.665Z,-0.40
2023-03-29T23:16:03.967Z,-0.40
2023-03-29T23:18:34.937Z,-0.40
2023-03-29T23:21:08.974Z,-0.40
2023-03-29T23:23:46.932Z,-0.40
2023-03-29T23:26:23.000Z,-0.40
2023-03-29T23:28:59.404Z,-0.40
2023-03-29T23:31:36.408Z,-0.40
2023-03-29T23:34:12.759Z,-0.60
2023-03-29T23:36:49.120Z,-0.64
2023-03-29T23:39:23.795Z,-0.72
2023-03-29T23:42:03.692Z,-0.70
2023-03-29T23:44:43.009Z,-0.70
2023-03-29T23:47:17.353Z,-0.70
2023-03-29T23:49:45.598Z,-0.80
2023-03-29T23:52:14.222Z,-0.80
2023-03-29T23:54:42.956Z,-0.80
2023-03-29T23:57:14.619Z,-0.80
2023-03-29T23:59:46.341Z,-0.80
